Terminal Aerodrome Forecast
Issued by NWS

Home | Current Version | Previous Version | Text Only | Print | Product List | Glossary On
Versions: 1 2 3 4 5 6 7 8 9 10 11 12 13 14 15 16 17 18 19
000
FTUS41 KGYX 261727 AAA
TAFPSM
TAF AMD
KPSM 261727Z 2617/2718 05006KT 1/2SM -DZ FG OVC003
     FM262300 05005KT 1/2SM FG OVC003
     FM270600 02004KT 1/4SM FG OVC003
     FM271400 07004KT P6SM BKN003
     FM271700 10004KT P6SM BKN008=

USA.gov is the U.S. government's official web portal to all federal, state and local government web resources and services.